sensor_id;sensor_type;location;lat;lon;timestamp;temperature;humidity
39969;DHT22;25648;47.808;19.004;2022-08-23T00:00:45;28.10;69.90
39969;DHT22;25648;47.808;19.004;2022-08-23T00:03:11;28.10;69.80
39969;DHT22;25648;47.808;19.004;2022-08-23T00:05:37;28.20;69.20
39969;DHT22;25648;47.808;19.004;2022-08-23T00:08:04;28.20;68.80
39969;DHT22;25648;47.808;19.004;2022-08-23T00:10:30;28.30;68.60
39969;DHT22;25648;47.808;19.004;2022-08-23T00:12:56;28.40;68.50
39969;DHT22;25648;47.808;19.004;2022-08-23T00:15:22;28.20;69.20
39969;DHT22;25648;47.808;19.004;2022-08-23T00:17:48;28.10;69.40
39969;DHT22;25648;47.808;19.004;2022-08-23T00:20:17;28.20;69.10
39969;DHT22;25648;47.808;19.004;2022-08-23T00:22:44;28.20;68.70
39969;DHT22;25648;47.808;19.004;2022-08-23T00:25:11;28.30;68.70
39969;DHT22;25648;47.808;19.004;2022-08-23T00:27:37;28.30;68.60
39969;DHT22;25648;47.808;19.004;2022-08-23T00:30:05;28.40;68.50
39969;DHT22;25648;47.808;19.004;2022-08-23T00:32:34;28.40;68.30
39969;DHT22;25648;47.808;19.004;2022-08-23T00:35:01;28.40;68.30
39969;DHT22;25648;47.808;19.004;2022-08-23T00:37:29;28.40;68.30
39969;DHT22;25648;47.808;19.004;2022-08-23T00:39:56;28.40;68.30
39969;DHT22;25648;47.808;19.004;2022-08-23T00:42:28;28.50;68.30
39969;DHT22;25648;47.808;19.004;2022-08-23T00:45:16;28.40;68.20
39969;DHT22;25648;47.808;19.004;2022-08-23T00:48:02;28.40;68.80
39969;DHT22;25648;47.808;19.004;2022-08-23T00:50:38;28.40;68.30
39969;DHT22;25648;47.808;19.004;2022-08-23T00:53:28;28.40;68.30
39969;DHT22;25648;47.808;19.004;2022-08-23T00:56:00;28.40;68.30
39969;DHT22;25648;47.808;19.004;2022-08-23T00:58:28;28.40;68.30
39969;DHT22;25648;47.808;19.004;2022-08-23T01:00:56;28.40;68.40
39969;DHT22;25648;47.808;19.004;2022-08-23T01:03:25;28.40;68.10
39969;DHT22;25648;47.808;19.004;2022-08-23T01:05:55;28.40;68.00
39969;DHT22;25648;47.808;19.004;2022-08-23T01:08:25;28.00;69.10
39969;DHT22;25648;47.808;19.004;2022-08-23T01:11:20;27.70;70.30
39969;DHT22;25648;47.808;19.004;2022-08-23T01:14:10;27.70;70.20
39969;DHT22;25648;47.808;19.004;2022-08-23T01:19:32;27.90;70.60
39969;DHT22;25648;47.808;19.004;2022-08-23T01:25:08;27.60;70.50
39969;DHT22;25648;47.808;19.004;2022-08-23T01:27:36;27.50;71.10
39969;DHT22;25648;47.808;19.004;2022-08-23T01:30:08;27.70;70.30
39969;DHT22;25648;47.808;19.004;2022-08-23T01:32:38;27.90;69.70
39969;DHT22;25648;47.808;19.004;2022-08-23T01:35:06;27.90;70.10
39969;DHT22;25648;47.808;19.004;2022-08-23T01:37:32;27.80;70.60
39969;DHT22;25648;47.808;19.004;2022-08-23T01:39:58;27.80;71.00
39969;DHT22;25648;47.808;19.004;2022-08-23T01:42:24;27.90;70.60
39969;DHT22;25648;47.808;19.004;2022-08-23T01:44:50;27.80;70.70
39969;DHT22;25648;47.808;19.004;2022-08-23T01:47:16;28.00;70.30
39969;DHT22;25648;47.808;19.004;2022-08-23T01:49:41;28.00;70.50
39969;DHT22;25648;47.808;19.004;2022-08-23T01:52:07;27.90;70.50
39969;DHT22;25648;47.808;19.004;2022-08-23T01:54:33;28.00;70.20
39969;DHT22;25648;47.808;19.004;2022-08-23T01:56:59;28.00;70.60
39969;DHT22;25648;47.808;19.004;2022-08-23T01:59:25;28.10;69.90
39969;DHT22;25648;47.808;19.004;2022-08-23T02:01:50;28.00;70.50
39969;DHT22;25648;47.808;19.004;2022-08-23T02:04:17;28.00;70.60
39969;DHT22;25648;47.808;19.004;2022-08-23T02:06:44;28.00;70.40
39969;DHT22;25648;47.808;19.004;2022-08-23T02:09:09;28.00;70.40
39969;DHT22;25648;47.808;19.004;2022-08-23T02:11:40;28.10;70.10
39969;DHT22;25648;47.808;19.004;2022-08-23T02:14:10;28.10;69.80
39969;DHT22;25648;47.808;19.004;2022-08-23T02:16:39;28.10;69.90
39969;DHT22;25648;47.808;19.004;2022-08-23T02:19:09;28.10;70.00
39969;DHT22;25648;47.808;19.004;2022-08-23T02:21:36;28.20;69.00
39969;DHT22;25648;47.808;19.004;2022-08-23T02:24:05;28.30;68.80
39969;DHT22;25648;47.808;19.004;2022-08-23T02:26:31;28.20;69.10
39969;DHT22;25648;47.808;19.004;2022-08-23T02:28:57;28.00;70.10
39969;DHT22;25648;47.808;19.004;2022-08-23T02:31:23;27.80;70.30
39969;DHT22;25648;47.808;19.004;2022-08-23T02:33:48;27.90;70.20
39969;DHT22;25648;47.808;19.004;2022-08-23T02:36:15;28.00;70.20
39969;DHT22;25648;47.808;19.004;2022-08-23T02:38:41;28.10;70.00
39969;DHT22;25648;47.808;19.004;2022-08-23T02:41:07;28.10;69.60
39969;DHT22;25648;47.808;19.004;2022-08-23T02:43:33;27.60;70.30
39969;DHT22;25648;47.808;19.004;2022-08-23T02:45:59;27.60;70.80
39969;DHT22;25648;47.808;19.004;2022-08-23T02:48:25;27.60;70.80
39969;DHT22;25648;47.808;19.004;2022-08-23T02:50:51;27.70;70.80
39969;DHT22;25648;47.808;19.004;2022-08-23T02:53:17;27.90;70.20
39969;DHT22;25648;47.808;19.004;2022-08-23T02:55:47;28.00;69.60
39969;DHT22;25648;47.808;19.004;2022-08-23T02:58:13;28.10;69.60
39969;DHT22;25648;47.808;19.004;2022-08-23T03:00:39;27.90;69.90
39969;DHT22;25648;47.808;19.004;2022-08-23T03:03:05;27.70;70.70
39969;DHT22;25648;47.808;19.004;2022-08-23T03:05:31;27.50;71.10
39969;DHT22;25648;47.808;19.004;2022-08-23T03:07:57;27.40;71.70
39969;DHT22;25648;47.808;19.004;2022-08-23T03:10:23;27.60;71.50
39969;DHT22;25648;47.808;19.004;2022-08-23T03:12:49;27.50;71.40
39969;DHT22;25648;47.808;19.004;2022-08-23T03:15:15;27.60;71.20
39969;DHT22;25648;47.808;19.004;2022-08-23T03:17:40;27.80;70.70
39969;DHT22;25648;47.808;19.004;2022-08-23T03:20:07;28.00;69.90
39969;DHT22;25648;47.808;19.004;2022-08-23T03:22:33;28.10;70.00
39969;DHT22;25648;47.808;19.004;2022-08-23T03:24:59;28.10;69.90
39969;DHT22;25648;47.808;19.004;2022-08-23T03:27:26;28.20;69.50
39969;DHT22;25648;47.808;19.004;2022-08-23T03:29:51;28.40;68.80
39969;DHT22;25648;47.808;19.004;2022-08-23T03:32:17;28.30;69.00
39969;DHT22;25648;47.808;19.004;2022-08-23T03:34:43;28.40;68.80
39969;DHT22;25648;47.808;19.004;2022-08-23T03:37:09;28.40;68.40
39969;DHT22;25648;47.808;19.004;2022-08-23T03:39:35;28.50;68.30
39969;DHT22;25648;47.808;19.004;2022-08-23T03:42:00;28.50;68.40
39969;DHT22;25648;47.808;19.004;2022-08-23T03:44:26;28.40;69.20
39969;DHT22;25648;47.808;19.004;2022-08-23T03:46:52;28.10;70.10
39969;DHT22;25648;47.808;19.004;2022-08-23T03:49:18;27.90;70.50
39969;DHT22;25648;47.808;19.004;2022-08-23T03:51:44;27.90;70.10
39969;DHT22;25648;47.808;19.004;2022-08-23T03:54:10;28.10;69.60
39969;DHT22;25648;47.808;19.004;2022-08-23T03:56:38;28.10;68.90
39969;DHT22;25648;47.808;19.004;2022-08-23T03:59:13;28.20;68.90
39969;DHT22;25648;47.808;19.004;2022-08-23T04:01:39;28.30;68.90
39969;DHT22;25648;47.808;19.004;2022-08-23T04:04:05;28.00;70.50
39969;DHT22;25648;47.808;19.004;2022-08-23T04:06:31;27.70;70.70
39969;DHT22;25648;47.808;19.004;2022-08-23T04:08:57;27.70;71.20
39969;DHT22;25648;47.808;19.004;2022-08-23T04:11:24;27.80;70.80
39969;DHT22;25648;47.808;19.004;2022-08-23T04:13:50;28.10;70.30
39969;DHT22;25648;47.808;19.004;2022-08-23T04:16:16;28.30;69.90
39969;DHT22;25648;47.808;19.004;2022-08-23T04:18:44;28.50;69.60
39969;DHT22;25648;47.808;19.004;2022-08-23T04:21:13;28.50;69.10
39969;DHT22;25648;47.808;19.004;2022-08-23T04:23:41;28.50;69.20
39969;DHT22;25648;47.808;19.004;2022-08-23T04:26:08;28.40;69.40
39969;DHT22;25648;47.808;19.004;2022-08-23T04:28:34;28.40;69.40
39969;DHT22;25648;47.808;19.004;2022-08-23T04:31:01;28.50;69.70
39969;DHT22;25648;47.808;19.004;2022-08-23T04:33:29;28.60;69.40
39969;DHT22;25648;47.808;19.004;2022-08-23T04:36:02;28.70;69.00
39969;DHT22;25648;47.808;19.004;2022-08-23T04:38:28;28.70;68.70
39969;DHT22;25648;47.808;19.004;2022-08-23T04:40:55;28.30;69.70
39969;DHT22;25648;47.808;19.004;2022-08-23T04:43:40;28.00;70.70
39969;DHT22;25648;47.808;19.004;2022-08-23T04:46:05;28.10;70.30
39969;DHT22;25648;47.808;19.004;2022-08-23T04:48:31;28.30;69.60
39969;DHT22;25648;47.808;19.004;2022-08-23T04:50:57;28.40;69.40
39969;DHT22;25648;47.808;19.004;2022-08-23T04:53:24;28.60;69.10
39969;DHT22;25648;47.808;19.004;2022-08-23T04:55:50;28.70;68.90
39969;DHT22;25648;47.808;19.004;2022-08-23T04:58:17;28.80;68.70
39969;DHT22;25648;47.808;19.004;2022-08-23T05:00:43;28.80;68.70
39969;DHT22;25648;47.808;19.004;2022-08-23T05:03:09;28.80;68.60
39969;DHT22;25648;47.808;19.004;2022-08-23T05:05:35;28.70;68.60
39969;DHT22;25648;47.808;19.004;2022-08-23T05:08:01;28.70;68.50
39969;DHT22;25648;47.808;19.004;2022-08-23T05:10:26;28.80;68.30
39969;DHT22;25648;47.808;19.004;2022-08-23T05:12:53;28.70;68.50
39969;DHT22;25648;47.808;19.004;2022-08-23T05:15:19;28.70;68.30
39969;DHT22;25648;47.808;19.004;2022-08-23T05:17:45;28.70;68.10
39969;DHT22;25648;47.808;19.004;2022-08-23T05:20:10;28.60;68.30
39969;DHT22;25648;47.808;19.004;2022-08-23T05:22:38;28.70;68.40
39969;DHT22;25648;47.808;19.004;2022-08-23T05:25:05;28.60;68.50
39969;DHT22;25648;47.808;19.004;2022-08-23T05:27:31;28.50;68.80
39969;DHT22;25648;47.808;19.004;2022-08-23T05:29:57;28.40;68.80
39969;DHT22;25648;47.808;19.004;2022-08-23T05:32:23;28.40;69.30
39969;DHT22;25648;47.808;19.004;2022-08-23T05:34:48;28.60;68.80
39969;DHT22;25648;47.808;19.004;2022-08-23T05:37:20;28.60;68.90
39969;DHT22;25648;47.808;19.004;2022-08-23T05:39:46;28.40;69.20
39969;DHT22;25648;47.808;19.004;2022-08-23T05:42:14;28.40;69.80
39969;DHT22;25648;47.808;19.004;2022-08-23T05:44:41;28.30;69.70
39969;DHT22;25648;47.808;19.004;2022-08-23T05:47:09;28.20;70.30
39969;DHT22;25648;47.808;19.004;2022-08-23T05:49:35;28.10;70.60
39969;DHT22;25648;47.808;19.004;2022-08-23T05:52:03;28.30;70.20
39969;DHT22;25648;47.808;19.004;2022-08-23T05:54:29;28.30;70.00
39969;DHT22;25648;47.808;19.004;2022-08-23T05:56:54;28.10;70.30
39969;DHT22;25648;47.808;19.004;2022-08-23T05:59:20;28.20;70.40
39969;DHT22;25648;47.808;19.004;2022-08-23T06:01:47;28.20;71.00
39969;DHT22;25648;47.808;19.004;2022-08-23T06:04:13;28.40;69.70
39969;DHT22;25648;47.808;19.004;2022-08-23T06:06:40;28.60;69.30
39969;DHT22;25648;47.808;19.004;2022-08-23T06:09:09;28.70;68.90
39969;DHT22;25648;47.808;19.004;2022-08-23T06:11:35;28.60;69.10
39969;DHT22;25648;47.808;19.004;2022-08-23T06:14:04;28.50;69.40
39969;DHT22;25648;47.808;19.004;2022-08-23T06:16:38;28.40;69.90
39969;DHT22;25648;47.808;19.004;2022-08-23T06:19:06;28.20;70.40
39969;DHT22;25648;47.808;19.004;2022-08-23T06:21:32;28.20;70.30
39969;DHT22;25648;47.808;19.004;2022-08-23T06:23:58;28.10;70.20
39969;DHT22;25648;47.808;19.004;2022-08-23T06:26:30;28.20;70.20
39969;DHT22;25648;47.808;19.004;2022-08-23T06:28:58;28.30;69.60
39969;DHT22;25648;47.808;19.004;2022-08-23T06:31:25;28.50;69.20
39969;DHT22;25648;47.808;19.004;2022-08-23T06:36:44;28.80;68.10
39969;DHT22;25648;47.808;19.004;2022-08-23T06:39:13;28.70;68.60
39969;DHT22;25648;47.808;19.004;2022-08-23T06:41:38;28.80;68.30
39969;DHT22;25648;47.808;19.004;2022-08-23T06:44:05;29.00;68.00
39969;DHT22;25648;47.808;19.004;2022-08-23T06:46:35;29.00;68.00
39969;DHT22;25648;47.808;19.004;2022-08-23T06:49:04;29.20;68.00
39969;DHT22;25648;47.808;19.004;2022-08-23T06:51:51;29.20;67.80
39969;DHT22;25648;47.808;19.004;2022-08-23T06:54:20;29.30;67.80
39969;DHT22;25648;47.808;19.004;2022-08-23T06:57:06;29.30;67.60
39969;DHT22;25648;47.808;19.004;2022-08-23T06:59:32;29.30;67.60
39969;DHT22;25648;47.808;19.004;2022-08-23T07:02:00;29.40;67.70
39969;DHT22;25648;47.808;19.004;2022-08-23T07:04:30;29.40;67.90
39969;DHT22;25648;47.808;19.004;2022-08-23T07:06:56;29.20;69.10
39969;DHT22;25648;47.808;19.004;2022-08-23T07:09:23;29.00;70.00
39969;DHT22;25648;47.808;19.004;2022-08-23T07:11:51;28.70;70.40
39969;DHT22;25648;47.808;19.004;2022-08-23T07:14:19;28.40;71.20
39969;DHT22;25648;47.808;19.004;2022-08-23T07:16:51;28.50;70.90
39969;DHT22;25648;47.808;19.004;2022-08-23T07:19:19;28.70;70.30
39969;DHT22;25648;47.808;19.004;2022-08-23T07:21:45;29.00;70.10
39969;DHT22;25648;47.808;19.004;2022-08-23T07:24:12;29.10;69.90
39969;DHT22;25648;47.808;19.004;2022-08-23T07:26:39;29.30;69.90
39969;DHT22;25648;47.808;19.004;2022-08-23T07:29:06;29.10;70.30
39969;DHT22;25648;47.808;19.004;2022-08-23T07:31:34;29.00;69.90
39969;DHT22;25648;47.808;19.004;2022-08-23T07:34:03;29.10;69.70
39969;DHT22;25648;47.808;19.004;2022-08-23T07:36:42;29.20;69.90
39969;DHT22;25648;47.808;19.004;2022-08-23T07:39:29;29.30;70.20
39969;DHT22;25648;47.808;19.004;2022-08-23T07:42:00;29.60;69.30
39969;DHT22;25648;47.808;19.004;2022-08-23T07:44:28;29.30;69.40
39969;DHT22;25648;47.808;19.004;2022-08-23T07:46:54;29.20;69.70
39969;DHT22;25648;47.808;19.004;2022-08-23T07:49:21;29.50;70.00
39969;DHT22;25648;47.808;19.004;2022-08-23T07:51:49;29.60;69.20
39969;DHT22;25648;47.808;19.004;2022-08-23T07:54:16;29.60;69.50
39969;DHT22;25648;47.808;19.004;2022-08-23T07:56:43;29.80;68.70
39969;DHT22;25648;47.808;19.004;2022-08-23T07:59:10;30.00;69.10
39969;DHT22;25648;47.808;19.004;2022-08-23T08:01:36;30.00;69.50
39969;DHT22;25648;47.808;19.004;2022-08-23T08:04:04;30.00;68.20
39969;DHT22;25648;47.808;19.004;2022-08-23T08:08:58;30.40;68.10
39969;DHT22;25648;47.808;19.004;2022-08-23T08:11:29;30.40;66.80
39969;DHT22;25648;47.808;19.004;2022-08-23T08:13:56;30.60;66.40
39969;DHT22;25648;47.808;19.004;2022-08-23T08:16:29;30.80;67.40
39969;DHT22;25648;47.808;19.004;2022-08-23T08:18:56;30.90;66.60
39969;DHT22;25648;47.808;19.004;2022-08-23T08:21:24;30.80;67.00
39969;DHT22;25648;47.808;19.004;2022-08-23T08:23:51;30.60;68.90
39969;DHT22;25648;47.808;19.004;2022-08-23T08:26:17;30.40;68.40
39969;DHT22;25648;47.808;19.004;2022-08-23T08:28:43;30.20;68.10
39969;DHT22;25648;47.808;19.004;2022-08-23T08:31:10;30.30;68.40
39969;DHT22;25648;47.808;19.004;2022-08-23T08:33:36;30.50;68.20
39969;DHT22;25648;47.808;19.004;2022-08-23T08:36:03;30.60;68.80
39969;DHT22;25648;47.808;19.004;2022-08-23T08:38:29;30.70;68.20
39969;DHT22;25648;47.808;19.004;2022-08-23T08:41:20;31.00;67.20
39969;DHT22;25648;47.808;19.004;2022-08-23T08:47:12;30.20;65.10
39969;DHT22;25648;47.808;19.004;2022-08-23T08:49:50;30.00;67.50
39969;DHT22;25648;47.808;19.004;2022-08-23T08:54:59;30.00;68.50
39969;DHT22;25648;47.808;19.004;2022-08-23T08:57:30;29.80;69.20
39969;DHT22;25648;47.808;19.004;2022-08-23T09:02:34;29.10;68.10
39969;DHT22;25648;47.808;19.004;2022-08-23T09:05:21;29.10;68.90
39969;DHT22;25648;47.808;19.004;2022-08-23T09:17:01;29.60;68.50
39969;DHT22;25648;47.808;19.004;2022-08-23T09:22:43;30.30;68.30
39969;DHT22;25648;47.808;19.004;2022-08-23T09:25:11;30.10;67.10
39969;DHT22;25648;47.808;19.004;2022-08-23T09:27:39;30.60;65.50
39969;DHT22;25648;47.808;19.004;2022-08-23T09:30:06;30.50;65.50
39969;DHT22;25648;47.808;19.004;2022-08-23T09:32:34;30.30;65.80
39969;DHT22;25648;47.808;19.004;2022-08-23T09:35:17;30.70;65.60
39969;DHT22;25648;47.808;19.004;2022-08-23T09:37:58;30.60;64.10
39969;DHT22;25648;47.808;19.004;2022-08-23T09:40:29;30.70;64.10
39969;DHT22;25648;47.808;19.004;2022-08-23T09:43:22;30.70;65.50
39969;DHT22;25648;47.808;19.004;2022-08-23T09:45:59;30.30;64.80
39969;DHT22;25648;47.808;19.004;2022-08-23T09:59:34;30.80;65.60
39969;DHT22;25648;47.808;19.004;2022-08-23T10:02:54;30.90;62.50
39969;DHT22;25648;47.808;19.004;2022-08-23T10:16:21;31.90;63.40
39969;DHT22;25648;47.808;19.004;2022-08-23T10:21:53;31.40;63.60
39969;DHT22;25648;47.808;19.004;2022-08-23T10:24:52;31.60;64.80
39969;DHT22;25648;47.808;19.004;2022-08-23T10:27:47;32.00;64.40
39969;DHT22;25648;47.808;19.004;2022-08-23T10:30:56;32.30;63.30
39969;DHT22;25648;47.808;19.004;2022-08-23T10:34:17;32.40;63.60
39969;DHT22;25648;47.808;19.004;2022-08-23T10:36:37;32.50;62.00
39969;DHT22;25648;47.808;19.004;2022-08-23T10:39:29;32.40;62.70
39969;DHT22;25648;47.808;19.004;2022-08-23T10:42:07;32.30;62.80
39969;DHT22;25648;47.808;19.004;2022-08-23T10:44:42;32.10;63.30
39969;DHT22;25648;47.808;19.004;2022-08-23T10:50:27;32.30;62.80
39969;DHT22;25648;47.808;19.004;2022-08-23T10:56:25;32.50;62.80
39969;DHT22;25648;47.808;19.004;2022-08-23T10:59:16;32.50;62.60
39969;DHT22;25648;47.808;19.004;2022-08-23T11:02:10;32.80;63.30
39969;DHT22;25648;47.808;19.004;2022-08-23T11:05:18;32.80;63.00
39969;DHT22;25648;47.808;19.004;2022-08-23T11:08:00;32.80;61.90
39969;DHT22;25648;47.808;19.004;2022-08-23T11:10:49;33.10;61.50
39969;DHT22;25648;47.808;19.004;2022-08-23T11:13:27;33.30;60.70
39969;DHT22;25648;47.808;19.004;2022-08-23T11:16:14;33.40;61.10
39969;DHT22;25648;47.808;19.004;2022-08-23T11:18:51;33.50;60.50
39969;DHT22;25648;47.808;19.004;2022-08-23T11:31:57;33.40;58.80
39969;DHT22;25648;47.808;19.004;2022-08-23T11:37:30;33.50;58.00
39969;DHT22;25648;47.808;19.004;2022-08-23T11:40:12;33.50;56.90
39969;DHT22;25648;47.808;19.004;2022-08-23T11:42:49;33.50;57.20
39969;DHT22;25648;47.808;19.004;2022-08-23T12:29:51;33.20;61.20
39969;DHT22;25648;47.808;19.004;2022-08-23T12:35:38;33.50;60.20
39969;DHT22;25648;47.808;19.004;2022-08-23T12:38:11;33.30;60.60
39969;DHT22;25648;47.808;19.004;2022-08-23T12:40:43;33.20;60.10
39969;DHT22;25648;47.808;19.004;2022-08-23T12:43:23;33.30;59.80
39969;DHT22;25648;47.808;19.004;2022-08-23T12:45:52;33.30;59.80
39969;DHT22;25648;47.808;19.004;2022-08-23T12:48:23;33.20;59.90
39969;DHT22;25648;47.808;19.004;2022-08-23T12:50:59;33.00;59.50
39969;DHT22;25648;47.808;19.004;2022-08-23T12:53:35;32.80;60.70
39969;DHT22;25648;47.808;19.004;2022-08-23T12:56:14;32.80;61.30
39969;DHT22;25648;47.808;19.004;2022-08-23T12:58:44;32.70;60.30
39969;DHT22;25648;47.808;19.004;2022-08-23T13:01:29;32.80;61.60
39969;DHT22;25648;47.808;19.004;2022-08-23T13:04:11;32.70;59.90
39969;DHT22;25648;47.808;19.004;2022-08-23T13:06:48;32.50;59.50
39969;DHT22;25648;47.808;19.004;2022-08-23T13:09:22;32.40;59.90
39969;DHT22;25648;47.808;19.004;2022-08-23T13:11:48;32.50;61.30
39969;DHT22;25648;47.808;19.004;2022-08-23T13:14:31;32.60;60.60
39969;DHT22;25648;47.808;19.004;2022-08-23T13:17:29;32.50;60.90
39969;DHT22;25648;47.808;19.004;2022-08-23T13:20:32;32.30;61.40
39969;DHT22;25648;47.808;19.004;2022-08-23T13:23:45;32.30;62.30
39969;DHT22;25648;47.808;19.004;2022-08-23T13:26:39;31.90;61.50
39969;DHT22;25648;47.808;19.004;2022-08-23T13:32:23;31.70;62.10
39969;DHT22;25648;47.808;19.004;2022-08-23T13:34:44;31.60;61.90
39969;DHT22;25648;47.808;19.004;2022-08-23T13:37:29;31.80;61.90
39969;DHT22;25648;47.808;19.004;2022-08-23T13:52:04;31.30;64.60
39969;DHT22;25648;47.808;19.004;2022-08-23T13:54:48;31.60;64.70
39969;DHT22;25648;47.808;19.004;2022-08-23T13:57:15;31.70;64.10
39969;DHT22;25648;47.808;19.004;2022-08-23T14:06:21;31.60;64.70
39969;DHT22;25648;47.808;19.004;2022-08-23T14:23:30;31.90;63.40
39969;DHT22;25648;47.808;19.004;2022-08-23T14:26:17;31.90;63.30
39969;DHT22;25648;47.808;19.004;2022-08-23T14:29:02;31.80;63.60
39969;DHT22;25648;47.808;19.004;2022-08-23T14:43:55;31.60;63.30
39969;DHT22;25648;47.808;19.004;2022-08-23T14:46:45;31.30;63.30
39969;DHT22;25648;47.808;19.004;2022-08-23T14:49:57;31.20;63.70
39969;DHT22;25648;47.808;19.004;2022-08-23T14:53:03;31.00;63.10
39969;DHT22;25648;47.808;19.004;2022-08-23T14:55:29;31.00;63.80
39969;DHT22;25648;47.808;19.004;2022-08-23T15:00:28;31.30;64.00
39969;DHT22;25648;47.808;19.004;2022-08-23T15:10:04;31.40;63.60
39969;DHT22;25648;47.808;19.004;2022-08-23T15:22:02;31.50;63.60
39969;DHT22;25648;47.808;19.004;2022-08-23T15:24:48;31.70;63.10
39969;DHT22;25648;47.808;19.004;2022-08-23T15:27:40;31.70;63.10
39969;DHT22;25648;47.808;19.004;2022-08-23T15:39:51;31.40;62.80
39969;DHT22;25648;47.808;19.004;2022-08-23T15:42:17;31.50;62.90
39969;DHT22;25648;47.808;19.004;2022-08-23T15:44:58;31.30;62.90
39969;DHT22;25648;47.808;19.004;2022-08-23T15:51:01;31.30;63.30
39969;DHT22;25648;47.808;19.004;2022-08-23T16:06:34;31.40;62.90
39969;DHT22;25648;47.808;19.004;2022-08-23T16:12:27;31.10;63.60
39969;DHT22;25648;47.808;19.004;2022-08-23T16:15:23;31.20;63.10
39969;DHT22;25648;47.808;19.004;2022-08-23T16:27:15;31.10;63.60
39969;DHT22;25648;47.808;19.004;2022-08-23T16:30:09;31.10;63.10
39969;DHT22;25648;47.808;19.004;2022-08-23T16:32:35;30.80;63.50
39969;DHT22;25648;47.808;19.004;2022-08-23T16:38:35;30.60;63.90
39969;DHT22;25648;47.808;19.004;2022-08-23T16:41:02;30.20;65.10
39969;DHT22;25648;47.808;19.004;2022-08-23T16:43:41;30.00;65.00
39969;DHT22;25648;47.808;19.004;2022-08-23T16:46:13;30.00;65.30
39969;DHT22;25648;47.808;19.004;2022-08-23T16:48:46;30.10;64.90
39969;DHT22;25648;47.808;19.004;2022-08-23T16:51:12;29.90;65.30
39969;DHT22;25648;47.808;19.004;2022-08-23T16:53:38;29.60;65.90
39969;DHT22;25648;47.808;19.004;2022-08-23T16:56:05;29.50;66.40
39969;DHT22;25648;47.808;19.004;2022-08-23T17:00:57;29.50;66.20
39969;DHT22;25648;47.808;19.004;2022-08-23T17:03:23;29.60;66.20
39969;DHT22;25648;47.808;19.004;2022-08-23T17:05:49;29.60;65.90
39969;DHT22;25648;47.808;19.004;2022-08-23T17:08:15;29.50;66.20
39969;DHT22;25648;47.808;19.004;2022-08-23T17:10:41;29.40;66.40
39969;DHT22;25648;47.808;19.004;2022-08-23T17:13:07;29.10;66.80
39969;DHT22;25648;47.808;19.004;2022-08-23T17:15:35;29.00;67.30
39969;DHT22;25648;47.808;19.004;2022-08-23T17:18:01;29.10;67.10
39969;DHT22;25648;47.808;19.004;2022-08-23T17:20:30;29.10;66.90
39969;DHT22;25648;47.808;19.004;2022-08-23T17:22:56;29.10;67.10
39969;DHT22;25648;47.808;19.004;2022-08-23T17:25:43;29.00;67.20
39969;DHT22;25648;47.808;19.004;2022-08-23T17:28:29;29.20;67.30
39969;DHT22;25648;47.808;19.004;2022-08-23T17:30:55;29.40;66.90
39969;DHT22;25648;47.808;19.004;2022-08-23T17:33:43;29.60;66.60
39969;DHT22;25648;47.808;19.004;2022-08-23T17:39:43;29.70;66.20
39969;DHT22;25648;47.808;19.004;2022-08-23T17:42:09;29.80;65.90
39969;DHT22;25648;47.808;19.004;2022-08-23T17:45:04;29.80;66.00
39969;DHT22;25648;47.808;19.004;2022-08-23T17:47:30;29.90;65.90
39969;DHT22;25648;47.808;19.004;2022-08-23T17:50:02;30.00;65.70
39969;DHT22;25648;47.808;19.004;2022-08-23T17:52:34;30.00;65.60
39969;DHT22;25648;47.808;19.004;2022-08-23T17:55:00;30.00;65.80
39969;DHT22;25648;47.808;19.004;2022-08-23T17:57:25;30.00;65.50
39969;DHT22;25648;47.808;19.004;2022-08-23T17:59:51;30.00;65.60
39969;DHT22;25648;47.808;19.004;2022-08-23T18:02:18;29.90;65.50
39969;DHT22;25648;47.808;19.004;2022-08-23T18:04:45;30.00;65.20
39969;DHT22;25648;47.808;19.004;2022-08-23T18:07:10;29.90;65.40
39969;DHT22;25648;47.808;19.004;2022-08-23T18:09:39;29.80;65.40
39969;DHT22;25648;47.808;19.004;2022-08-23T18:12:07;29.80;65.50
39969;DHT22;25648;47.808;19.004;2022-08-23T18:14:43;29.70;65.50
39969;DHT22;25648;47.808;19.004;2022-08-23T18:17:08;29.70;65.50
39969;DHT22;25648;47.808;19.004;2022-08-23T18:19:34;29.70;65.60
39969;DHT22;25648;47.808;19.004;2022-08-23T18:22:00;29.80;65.40
39969;DHT22;25648;47.808;19.004;2022-08-23T18:24:26;29.80;65.30
39969;DHT22;25648;47.808;19.004;2022-08-23T18:26:51;29.80;65.20
39969;DHT22;25648;47.808;19.004;2022-08-23T18:29:37;29.70;65.40
39969;DHT22;25648;47.808;19.004;2022-08-23T18:32:07;29.60;65.70
39969;DHT22;25648;47.808;19.004;2022-08-23T18:34:33;29.50;65.90
39969;DHT22;25648;47.808;19.004;2022-08-23T18:36:59;29.50;65.90
39969;DHT22;25648;47.808;19.004;2022-08-23T18:39:25;29.40;66.00
39969;DHT22;25648;47.808;19.004;2022-08-23T18:41:51;29.30;66.60
39969;DHT22;25648;47.808;19.004;2022-08-23T18:44:18;29.00;66.50
39969;DHT22;25648;47.808;19.004;2022-08-23T18:46:46;28.80;67.20
39969;DHT22;25648;47.808;19.004;2022-08-23T18:49:13;28.80;67.60
39969;DHT22;25648;47.808;19.004;2022-08-23T18:51:40;28.90;67.50
39969;DHT22;25648;47.808;19.004;2022-08-23T18:54:07;28.70;67.60
39969;DHT22;25648;47.808;19.004;2022-08-23T18:56:34;28.70;67.50
39969;DHT22;25648;47.808;19.004;2022-08-23T18:59:00;28.70;67.50
39969;DHT22;25648;47.808;19.004;2022-08-23T19:01:30;28.80;67.20
39969;DHT22;25648;47.808;19.004;2022-08-23T19:03:59;28.60;67.90
39969;DHT22;25648;47.808;19.004;2022-08-23T19:06:26;28.80;67.70
39969;DHT22;25648;47.808;19.004;2022-08-23T19:08:52;28.80;67.30
39969;DHT22;25648;47.808;19.004;2022-08-23T19:11:19;29.00;67.00
39969;DHT22;25648;47.808;19.004;2022-08-23T19:13:46;28.90;66.80
39969;DHT22;25648;47.808;19.004;2022-08-23T19:16:14;28.70;67.20
39969;DHT22;25648;47.808;19.004;2022-08-23T19:18:44;28.50;67.80
39969;DHT22;25648;47.808;19.004;2022-08-23T19:21:29;28.50;67.80
39969;DHT22;25648;47.808;19.004;2022-08-23T19:23:57;28.30;68.20
39969;DHT22;25648;47.808;19.004;2022-08-23T19:30:15;28.30;68.70
39969;DHT22;25648;47.808;19.004;2022-08-23T19:32:44;28.10;68.60
39969;DHT22;25648;47.808;19.004;2022-08-23T19:35:11;28.00;69.20
39969;DHT22;25648;47.808;19.004;2022-08-23T19:37:38;28.00;69.20
39969;DHT22;25648;47.808;19.004;2022-08-23T19:40:05;27.90;68.90
39969;DHT22;25648;47.808;19.004;2022-08-23T19:42:31;27.90;69.10
39969;DHT22;25648;47.808;19.004;2022-08-23T19:45:02;27.90;69.20